sensor_id;sensor_type;location;lat;lon;timestamp;P1;durP1;ratioP1;P2;durP2;ratioP2
2299;SDS011;1158;48.750;9.078;2023-04-03T00:00:38;6.87;;;4.03;;
2299;SDS011;1158;48.750;9.078;2023-04-03T00:03:05;6.27;;;3.90;;
2299;SDS011;1158;48.750;9.078;2023-04-03T00:05:32;8.20;;;3.93;;
2299;SDS011;1158;48.750;9.078;2023-04-03T00:08:00;5.70;;;4.10;;
2299;SDS011;1158;48.750;9.078;2023-04-03T00:10:27;5.30;;;4.27;;
2299;SDS011;1158;48.750;9.078;2023-04-03T00:12:55;7.77;;;4.50;;
2299;SDS011;1158;48.750;9.078;2023-04-03T00:15:24;5.67;;;4.20;;
2299;SDS011;1158;48.750;9.078;2023-04-03T00:17:51;9.00;;;5.40;;
2299;SDS011;1158;48.750;9.078;2023-04-03T00:20:17;13.73;;;7.17;;
2299;SDS011;1158;48.750;9.078;2023-04-03T00:22:44;9.17;;;4.57;;
2299;SDS011;1158;48.750;9.078;2023-04-03T00:25:12;6.53;;;4.53;;
2299;SDS011;1158;48.750;9.078;2023-04-03T00:27:39;9.73;;;4.20;;
2299;SDS011;1158;48.750;9.078;2023-04-03T00:30:07;8.03;;;3.50;;
2299;SDS011;1158;48.750;9.078;2023-04-03T00:32:36;6.23;;;3.70;;
2299;SDS011;1158;48.750;9.078;2023-04-03T00:35:03;5.63;;;4.10;;
2299;SDS011;1158;48.750;9.078;2023-04-03T00:37:30;6.63;;;4.27;;
2299;SDS011;1158;48.750;9.078;2023-04-03T00:39:57;7.77;;;4.27;;
2299;SDS011;1158;48.750;9.078;2023-04-03T00:42:25;4.70;;;3.50;;
2299;SDS011;1158;48.750;9.078;2023-04-03T00:47:53;6.43;;;3.80;;
2299;SDS011;1158;48.750;9.078;2023-04-03T00:50:20;8.90;;;4.30;;
2299;SDS011;1158;48.750;9.078;2023-04-03T00:52:48;7.40;;;3.70;;
2299;SDS011;1158;48.750;9.078;2023-04-03T00:55:15;6.27;;;4.27;;
2299;SDS011;1158;48.750;9.078;2023-04-03T00:57:43;4.80;;;3.80;;
2299;SDS011;1158;48.750;9.078;2023-04-03T01:00:13;5.80;;;4.00;;
2299;SDS011;1158;48.750;9.078;2023-04-03T01:02:42;6.03;;;4.20;;
2299;SDS011;1158;48.750;9.078;2023-04-03T01:05:09;6.73;;;4.27;;
2299;SDS011;1158;48.750;9.078;2023-04-03T01:07:36;6.23;;;4.13;;
2299;SDS011;1158;48.750;9.078;2023-04-03T01:10:05;7.07;;;3.93;;
2299;SDS011;1158;48.750;9.078;2023-04-03T01:12:34;9.50;;;4.27;;
2299;SDS011;1158;48.750;9.078;2023-04-03T01:15:04;6.47;;;4.93;;
2299;SDS011;1158;48.750;9.078;2023-04-03T01:17:35;5.90;;;4.13;;
2299;SDS011;1158;48.750;9.078;2023-04-03T01:23:03;5.50;;;3.90;;
2299;SDS011;1158;48.750;9.078;2023-04-03T01:25:38;7.70;;;4.50;;
2299;SDS011;1158;48.750;9.078;2023-04-03T01:28:07;6.07;;;4.00;;
2299;SDS011;1158;48.750;9.078;2023-04-03T01:30:39;6.67;;;4.30;;
2299;SDS011;1158;48.750;9.078;2023-04-03T01:33:14;5.20;;;3.97;;
2299;SDS011;1158;48.750;9.078;2023-04-03T01:35:41;5.30;;;3.90;;
2299;SDS011;1158;48.750;9.078;2023-04-03T01:38:08;10.07;;;3.73;;
2299;SDS011;1158;48.750;9.078;2023-04-03T01:40:35;6.23;;;4.27;;
2299;SDS011;1158;48.750;9.078;2023-04-03T01:43:03;9.90;;;4.20;;
2299;SDS011;1158;48.750;9.078;2023-04-03T01:45:30;6.03;;;3.80;;
2299;SDS011;1158;48.750;9.078;2023-04-03T01:47:57;6.80;;;4.63;;
2299;SDS011;1158;48.750;9.078;2023-04-03T01:50:25;8.50;;;4.63;;
2299;SDS011;1158;48.750;9.078;2023-04-03T01:52:51;8.50;;;4.27;;
2299;SDS011;1158;48.750;9.078;2023-04-03T01:55:18;8.07;;;4.30;;
2299;SDS011;1158;48.750;9.078;2023-04-03T01:57:45;6.30;;;3.97;;
2299;SDS011;1158;48.750;9.078;2023-04-03T02:00:12;22.53;;;10.20;;
2299;SDS011;1158;48.750;9.078;2023-04-03T02:02:39;69.60;;;25.50;;
2299;SDS011;1158;48.750;9.078;2023-04-03T02:05:06;65.60;;;23.30;;
2299;SDS011;1158;48.750;9.078;2023-04-03T02:07:35;32.03;;;12.90;;
2299;SDS011;1158;48.750;9.078;2023-04-03T02:10:02;11.07;;;6.63;;
2299;SDS011;1158;48.750;9.078;2023-04-03T02:12:29;8.33;;;4.83;;
2299;SDS011;1158;48.750;9.078;2023-04-03T02:14:55;5.50;;;4.20;;
2299;SDS011;1158;48.750;9.078;2023-04-03T02:17:22;9.63;;;4.97;;
2299;SDS011;1158;48.750;9.078;2023-04-03T02:19:49;6.50;;;4.50;;
2299;SDS011;1158;48.750;9.078;2023-04-03T02:22:15;11.73;;;4.57;;
2299;SDS011;1158;48.750;9.078;2023-04-03T02:24:44;7.93;;;3.97;;
2299;SDS011;1158;48.750;9.078;2023-04-03T02:27:10;9.20;;;4.57;;
2299;SDS011;1158;48.750;9.078;2023-04-03T02:29:38;7.07;;;4.60;;
2299;SDS011;1158;48.750;9.078;2023-04-03T02:32:04;5.67;;;4.13;;
2299;SDS011;1158;48.750;9.078;2023-04-03T02:34:31;6.70;;;4.60;;
2299;SDS011;1158;48.750;9.078;2023-04-03T02:36:58;6.67;;;4.73;;
2299;SDS011;1158;48.750;9.078;2023-04-03T02:39:25;6.03;;;4.73;;
2299;SDS011;1158;48.750;9.078;2023-04-03T02:41:53;7.73;;;4.40;;
2299;SDS011;1158;48.750;9.078;2023-04-03T02:44:20;5.13;;;3.80;;
2299;SDS011;1158;48.750;9.078;2023-04-03T02:46:48;6.43;;;4.70;;
2299;SDS011;1158;48.750;9.078;2023-04-03T02:49:15;5.40;;;3.73;;
2299;SDS011;1158;48.750;9.078;2023-04-03T02:51:42;7.10;;;4.50;;
2299;SDS011;1158;48.750;9.078;2023-04-03T02:54:08;7.63;;;5.10;;
2299;SDS011;1158;48.750;9.078;2023-04-03T02:56:35;6.00;;;4.43;;
2299;SDS011;1158;48.750;9.078;2023-04-03T02:59:04;4.70;;;4.00;;
2299;SDS011;1158;48.750;9.078;2023-04-03T03:01:31;9.20;;;4.40;;
2299;SDS011;1158;48.750;9.078;2023-04-03T03:03:57;8.43;;;4.60;;
2299;SDS011;1158;48.750;9.078;2023-04-03T03:06:24;6.40;;;4.40;;
2299;SDS011;1158;48.750;9.078;2023-04-03T03:08:51;8.10;;;4.00;;
2299;SDS011;1158;48.750;9.078;2023-04-03T03:11:19;5.93;;;3.80;;
2299;SDS011;1158;48.750;9.078;2023-04-03T03:13:45;5.93;;;3.97;;
2299;SDS011;1158;48.750;9.078;2023-04-03T03:16:14;7.77;;;3.50;;
2299;SDS011;1158;48.750;9.078;2023-04-03T03:18:40;5.47;;;3.87;;
2299;SDS011;1158;48.750;9.078;2023-04-03T03:21:08;6.20;;;4.63;;
2299;SDS011;1158;48.750;9.078;2023-04-03T03:23:36;6.70;;;4.13;;
2299;SDS011;1158;48.750;9.078;2023-04-03T03:26:04;5.70;;;4.13;;
2299;SDS011;1158;48.750;9.078;2023-04-03T03:28:32;8.80;;;3.93;;
2299;SDS011;1158;48.750;9.078;2023-04-03T03:31:00;4.83;;;3.93;;
2299;SDS011;1158;48.750;9.078;2023-04-03T03:33:29;5.47;;;3.47;;
2299;SDS011;1158;48.750;9.078;2023-04-03T03:35:55;7.50;;;4.30;;
2299;SDS011;1158;48.750;9.078;2023-04-03T03:38:22;5.60;;;4.20;;
2299;SDS011;1158;48.750;9.078;2023-04-03T03:40:50;7.23;;;4.60;;
2299;SDS011;1158;48.750;9.078;2023-04-03T03:43:17;6.30;;;4.33;;
2299;SDS011;1158;48.750;9.078;2023-04-03T03:45:46;5.63;;;4.03;;
2299;SDS011;1158;48.750;9.078;2023-04-03T03:48:16;7.43;;;4.57;;
2299;SDS011;1158;48.750;9.078;2023-04-03T03:50:44;8.40;;;5.23;;
2299;SDS011;1158;48.750;9.078;2023-04-03T03:53:11;15.27;;;7.30;;
2299;SDS011;1158;48.750;9.078;2023-04-03T03:55:37;9.43;;;5.10;;
2299;SDS011;1158;48.750;9.078;2023-04-03T03:58:04;6.70;;;4.20;;
2299;SDS011;1158;48.750;9.078;2023-04-03T04:00:31;4.93;;;3.67;;
2299;SDS011;1158;48.750;9.078;2023-04-03T04:02:57;10.10;;;4.27;;
2299;SDS011;1158;48.750;9.078;2023-04-03T04:05:25;5.77;;;4.03;;
2299;SDS011;1158;48.750;9.078;2023-04-03T04:07:54;8.00;;;3.60;;
2299;SDS011;1158;48.750;9.078;2023-04-03T04:10:20;6.60;;;3.90;;
2299;SDS011;1158;48.750;9.078;2023-04-03T04:12:47;7.73;;;3.63;;
2299;SDS011;1158;48.750;9.078;2023-04-03T04:15:16;6.07;;;4.20;;
2299;SDS011;1158;48.750;9.078;2023-04-03T04:17:43;7.80;;;4.70;;
2299;SDS011;1158;48.750;9.078;2023-04-03T04:20:10;7.00;;;3.80;;
2299;SDS011;1158;48.750;9.078;2023-04-03T04:22:37;5.33;;;3.57;;
2299;SDS011;1158;48.750;9.078;2023-04-03T04:25:06;6.70;;;4.43;;
2299;SDS011;1158;48.750;9.078;2023-04-03T04:27:33;5.37;;;3.97;;
2299;SDS011;1158;48.750;9.078;2023-04-03T04:30:00;5.40;;;4.57;;
2299;SDS011;1158;48.750;9.078;2023-04-03T04:32:27;6.43;;;3.73;;
2299;SDS011;1158;48.750;9.078;2023-04-03T04:34:54;9.70;;;4.30;;
2299;SDS011;1158;48.750;9.078;2023-04-03T04:37:21;5.67;;;3.80;;
2299;SDS011;1158;48.750;9.078;2023-04-03T04:39:47;8.00;;;5.00;;
2299;SDS011;1158;48.750;9.078;2023-04-03T04:42:16;5.70;;;4.30;;
2299;SDS011;1158;48.750;9.078;2023-04-03T04:44:42;5.23;;;4.07;;
2299;SDS011;1158;48.750;9.078;2023-04-03T04:47:09;5.33;;;4.20;;
2299;SDS011;1158;48.750;9.078;2023-04-03T04:49:36;6.97;;;4.17;;
2299;SDS011;1158;48.750;9.078;2023-04-03T04:52:03;7.57;;;3.50;;
2299;SDS011;1158;48.750;9.078;2023-04-03T04:54:30;6.00;;;4.03;;
2299;SDS011;1158;48.750;9.078;2023-04-03T04:56:57;8.00;;;4.37;;
2299;SDS011;1158;48.750;9.078;2023-04-03T04:59:25;8.63;;;4.00;;
2299;SDS011;1158;48.750;9.078;2023-04-03T05:01:52;5.40;;;3.60;;
2299;SDS011;1158;48.750;9.078;2023-04-03T05:04:18;5.00;;;3.53;;
2299;SDS011;1158;48.750;9.078;2023-04-03T05:06:45;7.50;;;3.43;;
2299;SDS011;1158;48.750;9.078;2023-04-03T05:09:12;5.47;;;3.13;;
2299;SDS011;1158;48.750;9.078;2023-04-03T05:11:39;5.00;;;3.80;;
2299;SDS011;1158;48.750;9.078;2023-04-03T05:14:05;4.30;;;2.87;;
2299;SDS011;1158;48.750;9.078;2023-04-03T05:16:34;7.53;;;4.13;;
2299;SDS011;1158;48.750;9.078;2023-04-03T05:19:01;6.13;;;4.20;;
2299;SDS011;1158;48.750;9.078;2023-04-03T05:21:28;5.40;;;3.50;;
2299;SDS011;1158;48.750;9.078;2023-04-03T05:23:57;4.70;;;3.77;;
2299;SDS011;1158;48.750;9.078;2023-04-03T05:26:23;3.57;;;2.90;;
2299;SDS011;1158;48.750;9.078;2023-04-03T05:28:52;5.03;;;3.00;;
2299;SDS011;1158;48.750;9.078;2023-04-03T05:31:18;4.90;;;3.10;;
2299;SDS011;1158;48.750;9.078;2023-04-03T05:33:46;4.87;;;3.70;;
2299;SDS011;1158;48.750;9.078;2023-04-03T05:36:13;5.70;;;3.57;;
2299;SDS011;1158;48.750;9.078;2023-04-03T05:38:40;4.37;;;3.30;;
2299;SDS011;1158;48.750;9.078;2023-04-03T05:41:07;6.37;;;3.73;;
2299;SDS011;1158;48.750;9.078;2023-04-03T05:43:33;7.93;;;3.13;;
2299;SDS011;1158;48.750;9.078;2023-04-03T05:46:02;5.60;;;3.17;;
2299;SDS011;1158;48.750;9.078;2023-04-03T05:48:29;4.07;;;3.30;;
2299;SDS011;1158;48.750;9.078;2023-04-03T05:50:57;3.63;;;2.57;;
2299;SDS011;1158;48.750;9.078;2023-04-03T05:53:25;5.27;;;3.10;;
2299;SDS011;1158;48.750;9.078;2023-04-03T05:55:54;5.00;;;3.20;;
2299;SDS011;1158;48.750;9.078;2023-04-03T05:58:20;6.07;;;3.37;;
2299;SDS011;1158;48.750;9.078;2023-04-03T06:00:47;8.70;;;5.50;;
2299;SDS011;1158;48.750;9.078;2023-04-03T06:03:14;8.90;;;5.17;;
2299;SDS011;1158;48.750;9.078;2023-04-03T06:05:41;8.47;;;3.37;;
2299;SDS011;1158;48.750;9.078;2023-04-03T06:08:09;4.67;;;3.40;;
2299;SDS011;1158;48.750;9.078;2023-04-03T06:10:36;5.33;;;3.40;;
2299;SDS011;1158;48.750;9.078;2023-04-03T06:13:03;5.93;;;3.47;;
2299;SDS011;1158;48.750;9.078;2023-04-03T06:15:29;5.37;;;3.80;;
2299;SDS011;1158;48.750;9.078;2023-04-03T06:17:56;7.23;;;3.60;;
2299;SDS011;1158;48.750;9.078;2023-04-03T06:20:23;5.13;;;3.67;;
2299;SDS011;1158;48.750;9.078;2023-04-03T06:22:50;4.27;;;3.07;;
2299;SDS011;1158;48.750;9.078;2023-04-03T06:25:18;9.67;;;4.27;;
2299;SDS011;1158;48.750;9.078;2023-04-03T06:27:46;5.83;;;3.20;;
2299;SDS011;1158;48.750;9.078;2023-04-03T06:30:13;7.47;;;3.50;;
2299;SDS011;1158;48.750;9.078;2023-04-03T06:32:40;5.47;;;3.50;;
2299;SDS011;1158;48.750;9.078;2023-04-03T06:35:08;4.20;;;3.07;;
2299;SDS011;1158;48.750;9.078;2023-04-03T06:37:35;7.90;;;3.30;;
2299;SDS011;1158;48.750;9.078;2023-04-03T06:40:02;6.07;;;3.47;;
2299;SDS011;1158;48.750;9.078;2023-04-03T06:42:31;4.50;;;3.00;;
2299;SDS011;1158;48.750;9.078;2023-04-03T06:44:58;5.77;;;3.53;;
2299;SDS011;1158;48.750;9.078;2023-04-03T06:47:25;6.50;;;3.67;;
2299;SDS011;1158;48.750;9.078;2023-04-03T06:49:52;12.40;;;4.13;;
2299;SDS011;1158;48.750;9.078;2023-04-03T06:52:18;5.20;;;3.17;;
2299;SDS011;1158;48.750;9.078;2023-04-03T06:54:45;5.07;;;3.53;;
2299;SDS011;1158;48.750;9.078;2023-04-03T06:57:12;5.10;;;3.53;;
2299;SDS011;1158;48.750;9.078;2023-04-03T06:59:41;4.97;;;3.10;;
2299;SDS011;1158;48.750;9.078;2023-04-03T07:02:09;4.20;;;3.00;;
2299;SDS011;1158;48.750;9.078;2023-04-03T07:04:37;5.27;;;3.40;;
2299;SDS011;1158;48.750;9.078;2023-04-03T07:07:04;5.37;;;3.00;;
2299;SDS011;1158;48.750;9.078;2023-04-03T07:09:31;5.27;;;3.00;;
2299;SDS011;1158;48.750;9.078;2023-04-03T07:11:57;4.70;;;3.20;;
2299;SDS011;1158;48.750;9.078;2023-04-03T07:14:24;5.63;;;3.87;;
2299;SDS011;1158;48.750;9.078;2023-04-03T07:16:52;7.23;;;3.33;;
2299;SDS011;1158;48.750;9.078;2023-04-03T07:19:19;4.50;;;3.20;;
2299;SDS011;1158;48.750;9.078;2023-04-03T07:21:46;8.67;;;3.90;;
2299;SDS011;1158;48.750;9.078;2023-04-03T07:24:13;8.83;;;3.93;;
2299;SDS011;1158;48.750;9.078;2023-04-03T07:26:40;7.23;;;3.60;;
2299;SDS011;1158;48.750;9.078;2023-04-03T07:29:07;5.63;;;3.60;;
2299;SDS011;1158;48.750;9.078;2023-04-03T07:31:34;5.77;;;3.30;;
2299;SDS011;1158;48.750;9.078;2023-04-03T07:34:02;7.10;;;3.50;;
2299;SDS011;1158;48.750;9.078;2023-04-03T07:36:28;7.20;;;3.93;;
2299;SDS011;1158;48.750;9.078;2023-04-03T07:38:58;7.43;;;3.90;;
2299;SDS011;1158;48.750;9.078;2023-04-03T07:41:24;6.23;;;3.30;;
2299;SDS011;1158;48.750;9.078;2023-04-03T07:43:51;6.43;;;3.37;;
2299;SDS011;1158;48.750;9.078;2023-04-03T07:46:18;6.03;;;3.80;;
2299;SDS011;1158;48.750;9.078;2023-04-03T07:48:45;7.70;;;3.73;;
2299;SDS011;1158;48.750;9.078;2023-04-03T07:51:13;7.27;;;3.87;;
2299;SDS011;1158;48.750;9.078;2023-04-03T07:53:41;5.30;;;3.77;;
2299;SDS011;1158;48.750;9.078;2023-04-03T07:56:08;5.83;;;3.30;;
2299;SDS011;1158;48.750;9.078;2023-04-03T07:58:35;4.50;;;3.40;;
2299;SDS011;1158;48.750;9.078;2023-04-03T08:01:02;6.77;;;3.10;;
2299;SDS011;1158;48.750;9.078;2023-04-03T08:03:29;6.10;;;3.90;;
2299;SDS011;1158;48.750;9.078;2023-04-03T08:06:00;8.57;;;3.33;;
2299;SDS011;1158;48.750;9.078;2023-04-03T08:08:29;4.17;;;3.20;;
2299;SDS011;1158;48.750;9.078;2023-04-03T08:10:58;13.90;;;4.40;;
2299;SDS011;1158;48.750;9.078;2023-04-03T08:13:25;9.23;;;3.33;;
2299;SDS011;1158;48.750;9.078;2023-04-03T08:15:52;5.43;;;3.63;;
2299;SDS011;1158;48.750;9.078;2023-04-03T08:18:20;6.17;;;3.57;;
2299;SDS011;1158;48.750;9.078;2023-04-03T08:20:49;4.73;;;3.00;;
2299;SDS011;1158;48.750;9.078;2023-04-03T08:23:16;5.90;;;3.70;;
2299;SDS011;1158;48.750;9.078;2023-04-03T08:25:44;7.00;;;3.33;;
2299;SDS011;1158;48.750;9.078;2023-04-03T08:28:11;4.23;;;3.10;;
2299;SDS011;1158;48.750;9.078;2023-04-03T08:30:38;7.87;;;3.40;;
2299;SDS011;1158;48.750;9.078;2023-04-03T08:33:06;5.57;;;3.53;;
2299;SDS011;1158;48.750;9.078;2023-04-03T08:35:33;5.90;;;3.33;;
2299;SDS011;1158;48.750;9.078;2023-04-03T08:38:03;6.80;;;3.37;;
2299;SDS011;1158;48.750;9.078;2023-04-03T08:40:30;4.73;;;2.87;;
2299;SDS011;1158;48.750;9.078;2023-04-03T08:43:01;5.67;;;3.53;;
2299;SDS011;1158;48.750;9.078;2023-04-03T08:45:45;7.30;;;3.40;;
2299;SDS011;1158;48.750;9.078;2023-04-03T08:48:15;5.53;;;3.13;;
2299;SDS011;1158;48.750;9.078;2023-04-03T08:50:47;10.60;;;3.80;;
2299;SDS011;1158;48.750;9.078;2023-04-03T08:53:16;6.30;;;3.67;;
2299;SDS011;1158;48.750;9.078;2023-04-03T08:55:45;4.37;;;3.43;;
2299;SDS011;1158;48.750;9.078;2023-04-03T08:58:16;7.30;;;3.97;;
2299;SDS011;1158;48.750;9.078;2023-04-03T09:00:46;5.63;;;3.80;;
2299;SDS011;1158;48.750;9.078;2023-04-03T09:03:16;11.23;;;3.90;;
2299;SDS011;1158;48.750;9.078;2023-04-03T09:05:45;7.63;;;4.10;;
2299;SDS011;1158;48.750;9.078;2023-04-03T09:08:18;5.00;;;3.50;;
2299;SDS011;1158;48.750;9.078;2023-04-03T09:10:49;7.93;;;3.70;;
2299;SDS011;1158;48.750;9.078;2023-04-03T09:13:26;6.50;;;4.10;;
2299;SDS011;1158;48.750;9.078;2023-04-03T09:15:57;6.90;;;3.77;;
2299;SDS011;1158;48.750;9.078;2023-04-03T09:18:28;5.87;;;3.40;;
2299;SDS011;1158;48.750;9.078;2023-04-03T09:21:00;6.30;;;3.70;;
2299;SDS011;1158;48.750;9.078;2023-04-03T09:23:35;6.13;;;3.83;;
2299;SDS011;1158;48.750;9.078;2023-04-03T09:26:09;7.30;;;3.63;;
2299;SDS011;1158;48.750;9.078;2023-04-03T09:28:41;5.17;;;3.20;;
2299;SDS011;1158;48.750;9.078;2023-04-03T09:31:14;4.30;;;3.40;;
2299;SDS011;1158;48.750;9.078;2023-04-03T09:33:45;7.17;;;3.60;;
2299;SDS011;1158;48.750;9.078;2023-04-03T09:36:12;7.33;;;3.50;;
2299;SDS011;1158;48.750;9.078;2023-04-03T09:38:39;8.50;;;4.27;;
2299;SDS011;1158;48.750;9.078;2023-04-03T09:41:11;6.60;;;3.20;;
2299;SDS011;1158;48.750;9.078;2023-04-03T09:43:51;6.90;;;3.50;;
2299;SDS011;1158;48.750;9.078;2023-04-03T09:46:24;6.53;;;3.40;;
2299;SDS011;1158;48.750;9.078;2023-04-03T09:48:55;6.00;;;3.70;;
2299;SDS011;1158;48.750;9.078;2023-04-03T09:51:24;4.53;;;3.33;;
2299;SDS011;1158;48.750;9.078;2023-04-03T09:53:53;7.37;;;3.60;;
2299;SDS011;1158;48.750;9.078;2023-04-03T09:56:22;5.80;;;3.60;;
2299;SDS011;1158;48.750;9.078;2023-04-03T09:59:02;7.07;;;3.20;;
2299;SDS011;1158;48.750;9.078;2023-04-03T10:01:41;3.70;;;2.87;;
2299;SDS011;1158;48.750;9.078;2023-04-03T10:04:23;5.53;;;2.93;;
2299;SDS011;1158;48.750;9.078;2023-04-03T10:06:51;6.27;;;3.57;;
2299;SDS011;1158;48.750;9.078;2023-04-03T10:09:20;6.90;;;3.80;;
2299;SDS011;1158;48.750;9.078;2023-04-03T10:11:59;7.03;;;3.50;;
2299;SDS011;1158;48.750;9.078;2023-04-03T10:14:36;5.00;;;3.20;;
2299;SDS011;1158;48.750;9.078;2023-04-03T10:17:09;6.17;;;3.67;;
2299;SDS011;1158;48.750;9.078;2023-04-03T10:19:45;3.90;;;3.00;;
2299;SDS011;1158;48.750;9.078;2023-04-03T10:22:19;6.13;;;3.50;;
2299;SDS011;1158;48.750;9.078;2023-04-03T10:24:55;4.60;;;3.50;;
2299;SDS011;1158;48.750;9.078;2023-04-03T10:27:40;7.47;;;3.87;;
2299;SDS011;1158;48.750;9.078;2023-04-03T10:30:19;6.07;;;3.20;;
2299;SDS011;1158;48.750;9.078;2023-04-03T10:32:58;4.80;;;2.37;;
2299;SDS011;1158;48.750;9.078;2023-04-03T10:35:50;5.07;;;3.43;;
2299;SDS011;1158;48.750;9.078;2023-04-03T10:38:30;6.57;;;3.50;;
2299;SDS011;1158;48.750;9.078;2023-04-03T10:41:07;6.53;;;3.17;;
2299;SDS011;1158;48.750;9.078;2023-04-03T10:43:40;6.80;;;3.33;;
2299;SDS011;1158;48.750;9.078;2023-04-03T10:46:12;6.33;;;3.10;;
2299;SDS011;1158;48.750;9.078;2023-04-03T10:48:48;5.20;;;3.10;;
2299;SDS011;1158;48.750;9.078;2023-04-03T10:51:25;4.20;;;2.90;;
2299;SDS011;1158;48.750;9.078;2023-04-03T10:54:00;6.80;;;2.90;;
2299;SDS011;1158;48.750;9.078;2023-04-03T10:56:34;5.40;;;2.67;;
2299;SDS011;1158;48.750;9.078;2023-04-03T10:59:08;3.50;;;3.03;;
2299;SDS011;1158;48.750;9.078;2023-04-03T11:01:46;4.10;;;3.10;;
2299;SDS011;1158;48.750;9.078;2023-04-03T11:04:16;4.17;;;2.60;;
2299;SDS011;1158;48.750;9.078;2023-04-03T11:06:47;6.87;;;3.57;;
2299;SDS011;1158;48.750;9.078;2023-04-03T11:09:18;5.80;;;3.20;;
2299;SDS011;1158;48.750;9.078;2023-04-03T11:11:49;4.40;;;2.53;;
2299;SDS011;1158;48.750;9.078;2023-04-03T11:14:22;6.10;;;3.00;;
2299;SDS011;1158;48.750;9.078;2023-04-03T11:16:55;4.73;;;3.13;;
2299;SDS011;1158;48.750;9.078;2023-04-03T11:19:32;6.73;;;3.00;;
2299;SDS011;1158;48.750;9.078;2023-04-03T11:22:03;5.13;;;3.20;;
2299;SDS011;1158;48.750;9.078;2023-04-03T11:24:37;5.30;;;3.10;;
2299;SDS011;1158;48.750;9.078;2023-04-03T11:27:08;4.50;;;3.43;;
2299;SDS011;1158;48.750;9.078;2023-04-03T11:29:43;5.20;;;3.00;;
2299;SDS011;1158;48.750;9.078;2023-04-03T11:32:21;4.87;;;2.63;;
2299;SDS011;1158;48.750;9.078;2023-04-03T11:34:58;5.73;;;2.87;;
2299;SDS011;1158;48.750;9.078;2023-04-03T11:37:29;4.47;;;3.03;;
2299;SDS011;1158;48.750;9.078;2023-04-03T11:40:02;3.90;;;2.80;;
2299;SDS011;1158;48.750;9.078;2023-04-03T11:42:33;4.73;;;3.00;;
2299;SDS011;1158;48.750;9.078;2023-04-03T11:45:16;7.13;;;3.70;;
2299;SDS011;1158;48.750;9.078;2023-04-03T11:48:00;4.97;;;2.77;;
2299;SDS011;1158;48.750;9.078;2023-04-03T11:50:39;6.73;;;2.57;;
2299;SDS011;1158;48.750;9.078;2023-04-03T11:55:57;4.13;;;2.60;;
2299;SDS011;1158;48.750;9.078;2023-04-03T11:58:26;4.20;;;2.43;;
2299;SDS011;1158;48.750;9.078;2023-04-03T12:00:58;4.27;;;2.90;;
2299;SDS011;1158;48.750;9.078;2023-04-03T12:03:52;4.83;;;2.37;;
2299;SDS011;1158;48.750;9.078;2023-04-03T12:12:42;5.80;;;2.50;;
2299;SDS011;1158;48.750;9.078;2023-04-03T12:15:25;5.33;;;2.60;;
2299;SDS011;1158;48.750;9.078;2023-04-03T12:21:17;5.13;;;2.70;;
2299;SDS011;1158;48.750;9.078;2023-04-03T12:23:56;3.90;;;2.93;;
2299;SDS011;1158;48.750;9.078;2023-04-03T12:26:27;4.07;;;2.77;;
2299;SDS011;1158;48.750;9.078;2023-04-03T12:28:56;4.70;;;2.70;;
2299;SDS011;1158;48.750;9.078;2023-04-03T12:31:23;3.90;;;2.67;;
2299;SDS011;1158;48.750;9.078;2023-04-03T12:34:01;4.53;;;2.50;;
2299;SDS011;1158;48.750;9.078;2023-04-03T12:36:41;3.80;;;2.53;;
2299;SDS011;1158;48.750;9.078;2023-04-03T12:39:25;5.07;;;2.90;;
2299;SDS011;1158;48.750;9.078;2023-04-03T12:42:11;4.00;;;2.97;;
2299;SDS011;1158;48.750;9.078;2023-04-03T12:44:50;4.80;;;2.70;;
2299;SDS011;1158;48.750;9.078;2023-04-03T12:47:27;4.53;;;2.60;;
2299;SDS011;1158;48.750;9.078;2023-04-03T12:49:57;4.03;;;2.30;;
2299;SDS011;1158;48.750;9.078;2023-04-03T12:52:35;5.60;;;2.60;;
2299;SDS011;1158;48.750;9.078;2023-04-03T12:55:07;4.60;;;2.63;;
2299;SDS011;1158;48.750;9.078;2023-04-03T12:57:40;6.00;;;2.77;;
2299;SDS011;1158;48.750;9.078;2023-04-03T13:00:20;4.33;;;2.60;;
2299;SDS011;1158;48.750;9.078;2023-04-03T13:02:52;3.83;;;2.80;;
2299;SDS011;1158;48.750;9.078;2023-04-03T13:05:19;6.87;;;2.40;;
2299;SDS011;1158;48.750;9.078;2023-04-03T13:07:49;6.57;;;2.87;;
2299;SDS011;1158;48.750;9.078;2023-04-03T13:10:22;4.63;;;2.97;;
2299;SDS011;1158;48.750;9.078;2023-04-03T13:12:49;5.77;;;2.50;;
2299;SDS011;1158;48.750;9.078;2023-04-03T13:15:18;7.17;;;2.60;;
2299;SDS011;1158;48.750;9.078;2023-04-03T13:17:45;6.53;;;2.90;;
2299;SDS011;1158;48.750;9.078;2023-04-03T13:20:18;5.77;;;3.00;;
2299;SDS011;1158;48.750;9.078;2023-04-03T13:22:48;5.53;;;3.13;;
2299;SDS011;1158;48.750;9.078;2023-04-03T13:25:23;6.40;;;2.87;;
2299;SDS011;1158;48.750;9.078;2023-04-03T13:27:52;4.00;;;2.77;;
2299;SDS011;1158;48.750;9.078;2023-04-03T13:30:24;5.10;;;2.23;;
2299;SDS011;1158;48.750;9.078;2023-04-03T13:32:53;5.30;;;2.93;;
2299;SDS011;1158;48.750;9.078;2023-04-03T13:35:26;6.23;;;2.70;;
2299;SDS011;1158;48.750;9.078;2023-04-03T13:38:00;4.07;;;2.73;;
2299;SDS011;1158;48.750;9.078;2023-04-03T13:40:30;5.47;;;3.00;;
2299;SDS011;1158;48.750;9.078;2023-04-03T13:43:01;6.40;;;2.67;;
2299;SDS011;1158;48.750;9.078;2023-04-03T13:45:30;6.77;;;3.20;;
2299;SDS011;1158;48.750;9.078;2023-04-03T13:48:09;3.20;;;2.57;;
2299;SDS011;1158;48.750;9.078;2023-04-03T13:50:53;4.40;;;2.43;;
2299;SDS011;1158;48.750;9.078;2023-04-03T13:53:26;8.63;;;3.00;;
2299;SDS011;1158;48.750;9.078;2023-04-03T13:55:56;5.73;;;3.10;;
2299;SDS011;1158;48.750;9.078;2023-04-03T13:58:26;11.07;;;3.37;;
2299;SDS011;1158;48.750;9.078;2023-04-03T14:00:54;4.23;;;2.70;;
2299;SDS011;1158;48.750;9.078;2023-04-03T14:03:23;4.37;;;2.43;;
2299;SDS011;1158;48.750;9.078;2023-04-03T14:05:51;4.90;;;2.57;;
2299;SDS011;1158;48.750;9.078;2023-04-03T14:08:18;4.87;;;3.37;;
2299;SDS011;1158;48.750;9.078;2023-04-03T14:10:47;6.40;;;2.60;;
2299;SDS011;1158;48.750;9.078;2023-04-03T14:13:15;3.53;;;2.73;;
2299;SDS011;1158;48.750;9.078;2023-04-03T14:15:44;4.53;;;2.80;;
2299;SDS011;1158;48.750;9.078;2023-04-03T14:18:13;5.73;;;3.30;;
2299;SDS011;1158;48.750;9.078;2023-04-03T14:20:41;5.40;;;3.03;;
2299;SDS011;1158;48.750;9.078;2023-04-03T14:23:09;3.77;;;2.50;;
2299;SDS011;1158;48.750;9.078;2023-04-03T14:25:36;6.20;;;2.63;;
2299;SDS011;1158;48.750;9.078;2023-04-03T14:28:12;5.80;;;3.30;;
2299;SDS011;1158;48.750;9.078;2023-04-03T14:30:41;5.60;;;3.00;;
2299;SDS011;1158;48.750;9.078;2023-04-03T14:33:10;6.10;;;2.93;;
2299;SDS011;1158;48.750;9.078;2023-04-03T14:35:38;6.00;;;3.57;;
2299;SDS011;1158;48.750;9.078;2023-04-03T14:38:05;14.83;;;6.87;;
2299;SDS011;1158;48.750;9.078;2023-04-03T14:40:45;4.30;;;2.83;;
2299;SDS011;1158;48.750;9.078;2023-04-03T14:43:13;4.47;;;2.90;;
2299;SDS011;1158;48.750;9.078;2023-04-03T14:45:41;4.63;;;3.47;;
2299;SDS011;1158;48.750;9.078;2023-04-03T14:48:09;7.90;;;2.63;;
2299;SDS011;1158;48.750;9.078;2023-04-03T14:50:44;4.93;;;2.87;;
2299;SDS011;1158;48.750;9.078;2023-04-03T14:53:12;4.40;;;2.53;;
2299;SDS011;1158;48.750;9.078;2023-04-03T14:55:39;3.20;;;2.10;;
2299;SDS011;1158;48.750;9.078;2023-04-03T14:58:08;4.50;;;2.53;;
2299;SDS011;1158;48.750;9.078;2023-04-03T15:00:39;4.40;;;2.70;;
2299;SDS011;1158;48.750;9.078;2023-04-03T15:03:05;4.03;;;2.50;;
2299;SDS011;1158;48.750;9.078;2023-04-03T15:05:32;5.47;;;2.93;;
2299;SDS011;1158;48.750;9.078;2023-04-03T15:08:02;6.53;;;2.53;;
2299;SDS011;1158;48.750;9.078;2023-04-03T15:10:30;4.80;;;3.10;;
2299;SDS011;1158;48.750;9.078;2023-04-03T15:12:58;5.90;;;2.73;;
2299;SDS011;1158;48.750;9.078;2023-04-03T15:15:27;6.93;;;2.97;;
2299;SDS011;1158;48.750;9.078;2023-04-03T15:17:56;5.93;;;2.87;;
2299;SDS011;1158;48.750;9.078;2023-04-03T15:20:25;5.53;;;2.67;;
2299;SDS011;1158;48.750;9.078;2023-04-03T15:22:55;10.30;;;3.20;;
2299;SDS011;1158;48.750;9.078;2023-04-03T15:25:22;4.30;;;2.53;;
2299;SDS011;1158;48.750;9.078;2023-04-03T15:27:49;4.20;;;3.07;;
2299;SDS011;1158;48.750;9.078;2023-04-03T15:30:16;3.90;;;2.53;;
2299;SDS011;1158;48.750;9.078;2023-04-03T15:32:44;7.97;;;5.07;;
2299;SDS011;1158;48.750;9.078;2023-04-03T15:35:12;4.40;;;2.93;;
2299;SDS011;1158;48.750;9.078;2023-04-03T15:37:39;5.27;;;3.37;;
2299;SDS011;1158;48.750;9.078;2023-04-03T15:40:06;5.67;;;3.30;;
2299;SDS011;1158;48.750;9.078;2023-04-03T15:42:34;4.77;;;3.13;;
2299;SDS011;1158;48.750;9.078;2023-04-03T15:45:01;4.70;;;3.30;;
2299;SDS011;1158;48.750;9.078;2023-04-03T15:47:27;5.20;;;2.67;;